createdAt,value
2023-07-11T00:00:05.441Z,1009.99
2023-07-11T00:01:05.477Z,1009.99
2023-07-11T00:02:05.418Z,1009.97
2023-07-11T00:03:05.453Z,1009.99
2023-07-11T00:04:05.498Z,1009.97
2023-07-11T00:05:05.398Z,1009.94
2023-07-11T00:06:05.829Z,1009.98
2023-07-11T00:07:05.365Z,1009.92
2023-07-11T00:08:05.416Z,1009.96
2023-07-11T00:09:05.391Z,1009.95
2023-07-11T00:10:05.332Z,1009.98
2023-07-11T00:11:05.354Z,1009.99
2023-07-11T00:12:05.314Z,1009.98
2023-07-11T00:13:05.304Z,1009.98
2023-07-11T00:14:05.353Z,1009.95
2023-07-11T00:15:05.274Z,1010.00
2023-07-11T00:16:05.739Z,1009.99
2023-07-11T00:17:05.418Z,1009.98
2023-07-11T00:18:05.306Z,1010.03
2023-07-11T00:19:05.236Z,1009.97
2023-07-11T00:20:05.220Z,1009.98
2023-07-11T00:21:05.212Z,1010.04
2023-07-11T00:22:05.225Z,1010.00
2023-07-11T00:23:05.189Z,1009.99
2023-07-11T00:24:05.207Z,1009.96
2023-07-11T00:25:05.167Z,1009.98
2023-07-11T00:26:05.770Z,1009.96
2023-07-11T00:27:05.176Z,1009.94
2023-07-11T00:28:05.133Z,1009.94
2023-07-11T00:29:05.122Z,1009.93
2023-07-11T00:30:05.254Z,1009.93
2023-07-11T00:31:05.188Z,1009.93
2023-07-11T00:32:05.096Z,1009.93
2023-07-11T00:33:05.116Z,1009.90
2023-07-11T00:34:05.071Z,1009.90
2023-07-11T00:35:05.066Z,1009.91
2023-07-11T00:36:05.364Z,1009.90
2023-07-11T00:37:05.051Z,1009.89
2023-07-11T00:38:05.040Z,1009.90
2023-07-11T00:39:05.017Z,1009.88
2023-07-11T00:40:05.022Z,1009.88
2023-07-11T00:41:05.000Z,1009.89
2023-07-11T00:42:04.988Z,1009.93
2023-07-11T00:43:05.010Z,1009.89
2023-07-11T00:44:04.964Z,1009.90
2023-07-11T00:45:05.172Z,1009.88
2023-07-11T00:46:05.565Z,1009.86
2023-07-11T00:47:05.030Z,1009.81
2023-07-11T00:48:04.940Z,1009.77
2023-07-11T00:49:04.905Z,1009.77
2023-07-11T00:50:04.896Z,1009.76
2023-07-11T00:51:04.995Z,1009.76
2023-07-11T00:52:04.893Z,1009.74
2023-07-11T00:53:04.868Z,1009.72
2023-07-11T00:54:04.851Z,1009.74
2023-07-11T00:55:04.863Z,1009.78
2023-07-11T00:56:05.102Z,1009.73
2023-07-11T00:57:04.827Z,1009.73
2023-07-11T00:58:04.804Z,1009.72
2023-07-11T00:59:04.845Z,1009.71
2023-07-11T01:00:04.797Z,1009.71
2023-07-11T01:01:04.821Z,1009.71
2023-07-11T01:02:04.757Z,1009.70
2023-07-11T01:03:05.019Z,1009.65
2023-07-11T01:04:04.818Z,1009.70
2023-07-11T01:05:04.891Z,1009.68
2023-07-11T01:06:05.100Z,1009.70
2023-07-11T01:07:04.702Z,1009.66
2023-07-11T01:08:04.695Z,1009.63
2023-07-11T01:09:04.741Z,1009.63
2023-07-11T01:10:04.723Z,1009.63
2023-07-11T01:11:04.665Z,1009.64
2023-07-11T01:12:04.648Z,1009.65
2023-07-11T01:13:04.676Z,1009.64
2023-07-11T01:14:04.709Z,1009.65
2023-07-11T01:15:04.724Z,1009.61
2023-07-11T01:16:04.914Z,1009.64
2023-07-11T01:17:04.687Z,1009.60
2023-07-11T01:18:04.663Z,1009.59
2023-07-11T01:19:04.599Z,1009.65
2023-07-11T01:20:04.560Z,1009.61
2023-07-11T01:21:04.558Z,1009.63
2023-07-11T01:22:04.542Z,1009.60
2023-07-11T01:23:04.540Z,1009.56
2023-07-11T01:24:04.517Z,1009.56
2023-07-11T01:25:04.523Z,1009.59
2023-07-11T01:26:04.775Z,1009.59
2023-07-11T01:27:04.504Z,1009.61
2023-07-11T01:28:04.481Z,1009.59
2023-07-11T01:29:04.462Z,1009.57
2023-07-11T01:30:04.457Z,1009.60
2023-07-11T01:31:04.508Z,1009.53
2023-07-11T01:32:04.430Z,1009.52
2023-07-11T01:33:04.503Z,1009.56
2023-07-11T01:34:04.427Z,1009.49
2023-07-11T01:35:04.398Z,1009.52
2023-07-11T01:36:04.583Z,1009.50
2023-07-11T01:37:04.377Z,1009.48
2023-07-11T01:38:04.361Z,1009.47
2023-07-11T01:39:04.348Z,1009.46
2023-07-11T01:40:04.349Z,1009.43
2023-07-11T01:41:04.330Z,1009.42
2023-07-11T01:42:04.318Z,1009.42
2023-07-11T01:43:04.304Z,1009.46
2023-07-11T01:44:04.299Z,1009.40
2023-07-11T01:45:04.296Z,1009.40
2023-07-11T01:46:04.591Z,1009.43
2023-07-11T01:47:04.295Z,1009.45
2023-07-11T01:48:04.360Z,1009.43
2023-07-11T01:49:04.244Z,1009.39
2023-07-11T01:50:04.225Z,1009.40
2023-07-11T01:51:04.223Z,1009.36
2023-07-11T01:52:04.221Z,1009.31
2023-07-11T01:53:04.201Z,1009.29
2023-07-11T01:54:04.189Z,1009.36
2023-07-11T01:55:04.166Z,1009.37
2023-07-11T01:56:04.331Z,1009.30
2023-07-11T01:57:04.156Z,1009.30
2023-07-11T01:58:04.146Z,1009.30
2023-07-11T01:59:04.130Z,1009.31
2023-07-11T02:00:04.122Z,1009.31
2023-07-11T02:01:04.950Z,1009.28
2023-07-11T02:02:04.217Z,1009.33
2023-07-11T02:03:04.211Z,1009.29
2023-07-11T02:04:04.071Z,1009.27
2023-07-11T02:05:04.075Z,1009.30
2023-07-11T02:06:04.296Z,1009.28
2023-07-11T02:07:04.049Z,1009.24
2023-07-11T02:08:04.029Z,1009.24
2023-07-11T02:09:04.018Z,1009.23
2023-07-11T02:10:04.011Z,1009.20
2023-07-11T02:11:04.007Z,1009.22
2023-07-11T02:12:03.997Z,1009.21
2023-07-11T02:13:03.980Z,1009.24
2023-07-11T02:14:04.030Z,1009.23
2023-07-11T02:15:03.970Z,1009.20
2023-07-11T02:16:04.264Z,1009.20
2023-07-11T02:17:04.085Z,1009.17
2023-07-11T02:18:03.989Z,1009.18
2023-07-11T02:19:03.947Z,1009.17
2023-07-11T02:20:03.901Z,1009.13
2023-07-11T02:21:03.906Z,1009.10
2023-07-11T02:22:03.875Z,1009.09
2023-07-11T02:23:03.885Z,1009.06
2023-07-11T02:24:03.856Z,1009.06
2023-07-11T02:25:03.864Z,1009.08
2023-07-11T02:26:03.997Z,1009.06
2023-07-11T02:27:03.822Z,1009.04
2023-07-11T02:28:03.804Z,1009.04
2023-07-11T02:29:03.796Z,1009.05
2023-07-11T02:30:03.791Z,1009.01
2023-07-11T02:31:03.828Z,1009.02
2023-07-11T02:32:03.879Z,1009.00
2023-07-11T02:33:03.854Z,1008.97
2023-07-11T02:34:03.740Z,1008.96
2023-07-11T02:35:03.759Z,1008.98
2023-07-11T02:36:03.942Z,1009.00
2023-07-11T02:37:03.743Z,1008.98
2023-07-11T02:38:03.695Z,1008.97
2023-07-11T02:39:03.691Z,1008.95
2023-07-11T02:40:03.680Z,1008.92
2023-07-11T02:41:03.667Z,1008.92
2023-07-11T02:42:03.659Z,1008.91
2023-07-11T02:43:03.647Z,1008.90
2023-07-11T02:44:03.662Z,1008.89
2023-07-11T02:45:03.621Z,1008.91
2023-07-11T02:46:03.928Z,1008.94
2023-07-11T02:47:03.602Z,1008.97
2023-07-11T02:48:03.666Z,1008.92
2023-07-11T02:49:03.595Z,1008.92
2023-07-11T02:50:03.575Z,1008.90
2023-07-11T02:51:03.590Z,1008.87
2023-07-11T02:52:03.545Z,1008.88
2023-07-11T02:53:03.552Z,1008.82
2023-07-11T02:54:03.547Z,1008.83
2023-07-11T02:55:03.519Z,1008.81
2023-07-11T02:56:03.578Z,1008.82
2023-07-11T02:57:03.492Z,1008.80
2023-07-11T02:58:03.485Z,1008.77
2023-07-11T02:59:03.480Z,1008.80
2023-07-11T03:00:03.464Z,1008.79
2023-07-11T03:01:03.482Z,1008.78
2023-07-11T03:02:03.461Z,1008.79
2023-07-11T03:03:03.476Z,1008.79
2023-07-11T03:04:03.423Z,1008.75
2023-07-11T03:05:03.433Z,1008.79
2023-07-11T03:06:03.436Z,1008.77
2023-07-11T03:07:03.553Z,1008.77
2023-07-11T03:08:03.376Z,1008.73
2023-07-11T03:09:03.373Z,1008.74
2023-07-11T03:10:03.349Z,1008.69
2023-07-11T03:11:03.349Z,1008.71
2023-07-11T03:12:03.335Z,1008.68
2023-07-11T03:13:03.323Z,1008.72
2023-07-11T03:14:03.322Z,1008.73
2023-07-11T03:15:04.822Z,1008.69
2023-07-11T03:16:03.572Z,1008.68
2023-07-11T03:17:03.319Z,1008.66
2023-07-11T03:18:03.317Z,1008.68
2023-07-11T03:19:03.246Z,1008.67
2023-07-11T03:20:03.244Z,1008.63
2023-07-11T03:21:03.241Z,1008.67
2023-07-11T03:22:03.217Z,1008.64
2023-07-11T03:23:03.232Z,1008.64
2023-07-11T03:24:03.224Z,1008.65
2023-07-11T03:25:03.196Z,1008.60
2023-07-11T03:26:03.272Z,1008.63
2023-07-11T03:27:03.176Z,1008.64
2023-07-11T03:28:03.148Z,1008.67
2023-07-11T03:29:03.158Z,1008.67
2023-07-11T03:30:03.147Z,1008.67
2023-07-11T03:31:03.150Z,1008.67
2023-07-11T03:32:03.163Z,1008.67
2023-07-11T03:33:03.151Z,1008.67
2023-07-11T03:34:03.099Z,1008.64
2023-07-11T03:35:03.999Z,1008.65
2023-07-11T03:36:03.058Z,1008.62
2023-07-11T03:37:03.056Z,1008.66
2023-07-11T03:38:03.048Z,1008.69
2023-07-11T03:39:03.062Z,1008.67
2023-07-11T03:40:03.037Z,1008.70
2023-07-11T03:41:03.012Z,1008.67
2023-07-11T03:42:02.996Z,1008.70
2023-07-11T03:43:03.013Z,1008.69
2023-07-11T03:44:02.984Z,1008.67
2023-07-11T03:45:02.962Z,1008.68
2023-07-11T03:46:02.962Z,1008.68
2023-07-11T03:47:03.149Z,1008.68
2023-07-11T03:48:02.981Z,1008.69
2023-07-11T03:49:02.917Z,1008.62
2023-07-11T03:50:02.913Z,1008.64
2023-07-11T03:51:02.901Z,1008.63
2023-07-11T03:52:02.908Z,1008.64
2023-07-11T03:53:02.877Z,1008.61
2023-07-11T03:54:02.867Z,1008.60
2023-07-11T03:55:02.872Z,1008.56
2023-07-11T03:56:02.854Z,1008.58
2023-07-11T03:57:02.843Z,1008.54
2023-07-11T03:58:02.829Z,1008.58
2023-07-11T03:59:02.810Z,1008.55
2023-07-11T04:00:02.804Z,1008.52
2023-07-11T04:01:02.799Z,1008.53
2023-07-11T04:02:02.800Z,1008.53
2023-07-11T04:03:02.978Z,1008.50
2023-07-11T04:04:02.839Z,1008.50
2023-07-11T04:05:02.746Z,1008.49
2023-07-11T04:06:02.730Z,1008.50
2023-07-11T04:07:02.725Z,1008.49
2023-07-11T04:08:02.702Z,1008.53
2023-07-11T04:09:02.697Z,1008.55
2023-07-11T04:10:02.706Z,1008.54
2023-07-11T04:11:02.735Z,1008.55
2023-07-11T04:12:02.663Z,1008.54
2023-07-11T04:13:02.678Z,1008.49
2023-07-11T04:14:02.683Z,1008.49
2023-07-11T04:15:02.642Z,1008.52
2023-07-11T04:16:02.630Z,1008.46
2023-07-11T04:17:02.651Z,1008.50
2023-07-11T04:18:02.620Z,1008.50
2023-07-11T04:19:02.589Z,1008.49
2023-07-11T04:20:02.582Z,1008.49
2023-07-11T04:21:03.495Z,1008.49
2023-07-11T04:22:02.549Z,1008.51
2023-07-11T04:23:02.547Z,1008.48
2023-07-11T04:24:02.532Z,1008.53
2023-07-11T04:25:02.534Z,1008.51
2023-07-11T04:26:02.511Z,1008.54
2023-07-11T04:27:02.519Z,1008.45
2023-07-11T04:28:02.491Z,1008.46
2023-07-11T04:29:02.484Z,1008.40
2023-07-11T04:30:02.469Z,1008.45
2023-07-11T04:31:02.502Z,1008.40
2023-07-11T04:32:02.440Z,1008.40
2023-07-11T04:33:02.488Z,1008.40
2023-07-11T04:34:02.424Z,1008.39
2023-07-11T04:35:02.410Z,1008.35
2023-07-11T04:36:02.401Z,1008.36
2023-07-11T04:37:02.399Z,1008.38
2023-07-11T04:38:02.387Z,1008.34
2023-07-11T04:39:02.371Z,1008.36
2023-07-11T04:40:02.410Z,1008.35
2023-07-11T04:41:02.359Z,1008.35
2023-07-11T04:42:02.413Z,1008.37
2023-07-11T04:43:02.349Z,1008.35
2023-07-11T04:44:02.311Z,1008.37
2023-07-11T04:45:02.300Z,1008.34
2023-07-11T04:46:02.302Z,1008.34
2023-07-11T04:47:02.297Z,1008.33
2023-07-11T04:48:02.313Z,1008.32
2023-07-11T04:49:02.258Z,1008.30
2023-07-11T04:50:02.246Z,1008.34
2023-07-11T04:51:02.265Z,1008.30
2023-07-11T04:52:02.223Z,1008.26
2023-07-11T04:53:02.211Z,1008.26
2023-07-11T04:54:02.219Z,1008.25
2023-07-11T04:55:02.252Z,1008.24
2023-07-11T04:56:02.182Z,1008.17
2023-07-11T04:57:02.167Z,1008.19
2023-07-11T04:58:02.161Z,1008.21
2023-07-11T04:59:02.177Z,1008.22
2023-07-11T05:00:02.139Z,1008.16
2023-07-11T05:01:02.143Z,1008.19
2023-07-11T05:02:02.201Z,1008.19
2023-07-11T05:03:02.121Z,1008.20
2023-07-11T05:04:02.147Z,1008.16
2023-07-11T05:05:02.096Z,1008.14
2023-07-11T05:06:02.083Z,1008.15
2023-07-11T05:07:02.066Z,1008.13
2023-07-11T05:08:02.064Z,1008.13
2023-07-11T05:09:02.045Z,1008.13
2023-07-11T05:10:02.055Z,1008.14
2023-07-11T05:11:02.037Z,1008.18
2023-07-11T05:12:02.014Z,1008.16
2023-07-11T05:13:02.006Z,1008.13
2023-07-11T05:14:02.092Z,1008.12
2023-07-11T05:15:02.014Z,1008.12
2023-07-11T05:16:02.091Z,1008.11
2023-07-11T05:17:02.044Z,1008.09
2023-07-11T05:18:02.063Z,1008.08
2023-07-11T05:19:01.959Z,1008.06
2023-07-11T05:20:01.949Z,1008.06
2023-07-11T05:21:01.920Z,1008.04
2023-07-11T05:22:01.993Z,1008.01
2023-07-11T05:23:01.920Z,1008.02
2023-07-11T05:24:10.011Z,1008.02
2023-07-11T05:25:01.855Z,1008.01
2023-07-11T05:26:01.852Z,1007.99
2023-07-11T05:27:01.838Z,1008.00
2023-07-11T05:28:01.876Z,1008.03
2023-07-11T05:29:01.849Z,1007.98
2023-07-11T05:30:01.808Z,1007.99
2023-07-11T05:31:01.830Z,1007.95
2023-07-11T05:32:01.869Z,1007.95
2023-07-11T05:33:01.881Z,1007.99
2023-07-11T05:34:01.791Z,1007.95
2023-07-11T05:35:01.777Z,1007.93
2023-07-11T05:36:01.745Z,1007.89
2023-07-11T05:37:01.728Z,1007.86
2023-07-11T05:38:01.772Z,1007.83
2023-07-11T05:39:01.714Z,1007.80
2023-07-11T05:40:01.725Z,1007.82
2023-07-11T05:41:01.684Z,1007.85
2023-07-11T05:42:01.668Z,1007.80
2023-07-11T05:43:01.693Z,1007.81
2023-07-11T05:44:01.686Z,1007.81
2023-07-11T05:45:01.668Z,1007.80
2023-07-11T05:46:01.646Z,1007.76
2023-07-11T05:47:01.718Z,1007.71
2023-07-11T05:48:01.701Z,1007.77
2023-07-11T05:49:01.670Z,1007.73
2023-07-11T05:50:01.614Z,1007.71
2023-07-11T05:51:01.575Z,1007.73
2023-07-11T05:52:01.568Z,1007.73
2023-07-11T05:53:01.579Z,1007.75
2023-07-11T05:54:01.539Z,1007.74
2023-07-11T05:55:01.536Z,1007.66
2023-07-11T05:56:01.550Z,1007.72
2023-07-11T05:57:01.515Z,1007.72
2023-07-11T05:58:01.505Z,1007.62
2023-07-11T05:59:01.512Z,1007.65
2023-07-11T06:00:01.494Z,1007.64
2023-07-11T06:01:01.495Z,1007.61
2023-07-11T06:02:01.507Z,1007.62
2023-07-11T06:03:01.547Z,1007.62
2023-07-11T06:04:01.462Z,1007.60
2023-07-11T06:05:01.427Z,1007.59
2023-07-11T06:06:01.402Z,1007.56
2023-07-11T06:07:01.403Z,1007.56
2023-07-11T06:08:01.441Z,1007.53
2023-07-11T06:09:01.382Z,1007.55
2023-07-11T06:10:01.386Z,1007.52
2023-07-11T06:11:01.374Z,1007.54
2023-07-11T06:12:01.352Z,1007.49
2023-07-11T06:13:01.365Z,1007.53
2023-07-11T06:14:01.405Z,1007.49
2023-07-11T06:15:01.341Z,1007.49
2023-07-11T06:16:01.425Z,1007.41
2023-07-11T06:17:01.352Z,1007.46
2023-07-11T06:18:01.314Z,1007.43
2023-07-11T06:19:01.324Z,1007.42
2023-07-11T06:20:01.266Z,1007.39
2023-07-11T06:21:01.249Z,1007.42
2023-07-11T06:22:01.266Z,1007.41
2023-07-11T06:23:01.253Z,1007.40
2023-07-11T06:24:01.223Z,1007.41
2023-07-11T06:25:01.227Z,1007.40
2023-07-11T06:26:01.191Z,1007.39
2023-07-11T06:27:01.256Z,1007.40
2023-07-11T06:28:01.185Z,1007.43
2023-07-11T06:29:01.196Z,1007.46
2023-07-11T06:30:01.182Z,1007.44
2023-07-11T06:31:01.194Z,1007.45
2023-07-11T06:32:01.182Z,1007.42
2023-07-11T06:33:01.169Z,1007.44
2023-07-11T06:34:01.141Z,1007.45
2023-07-11T06:35:01.136Z,1007.44
2023-07-11T06:36:01.123Z,1007.44
2023-07-11T06:37:01.107Z,1007.43
2023-07-11T06:38:01.059Z,1007.37
2023-07-11T06:39:01.073Z,1007.36
2023-07-11T06:40:01.049Z,1007.40
2023-07-11T06:41:01.052Z,1007.41
2023-07-11T06:42:01.024Z,1007.43
2023-07-11T06:43:01.008Z,1007.40
2023-07-11T06:44:01.016Z,1007.37
2023-07-11T06:45:00.988Z,1007.37
2023-07-11T06:46:01.101Z,1007.39
2023-07-11T06:47:00.969Z,1007.37
2023-07-11T06:48:00.948Z,1007.36
2023-07-11T06:49:00.954Z,1007.39
2023-07-11T06:50:00.967Z,1007.36
2023-07-11T06:51:00.968Z,1007.34
2023-07-11T06:52:00.910Z,1007.34
2023-07-11T06:53:00.891Z,1007.33
2023-07-11T06:54:00.901Z,1007.35
2023-07-11T06:55:00.878Z,1007.31
2023-07-11T06:56:00.903Z,1007.32
2023-07-11T06:57:00.866Z,1007.30
2023-07-11T06:58:00.855Z,1007.31
2023-07-11T06:59:00.835Z,1007.27
2023-07-11T07:00:00.830Z,1007.21
2023-07-11T07:01:00.888Z,1007.20
2023-07-11T07:02:00.813Z,1007.18
2023-07-11T07:03:00.886Z,1007.19
2023-07-11T07:04:02.321Z,1007.22
2023-07-11T07:05:00.801Z,1007.18
2023-07-11T07:06:00.763Z,1007.18
2023-07-11T07:07:00.760Z,1007.15
2023-07-11T07:08:12.852Z,1007.17
2023-07-11T07:09:01.801Z,1007.18
2023-07-11T07:10:00.718Z,1007.14
2023-07-11T07:11:00.717Z,1007.16
2023-07-11T07:12:00.690Z,1007.19
2023-07-11T07:13:00.700Z,1007.16
2023-07-11T07:14:05.954Z,1007.12
2023-07-11T07:15:01.720Z,1007.16
2023-07-11T07:16:00.664Z,1007.14
2023-07-11T07:17:00.743Z,1007.10
2023-07-11T07:18:00.659Z,1007.12
2023-07-11T07:19:00.635Z,1007.10
2023-07-11T07:20:00.612Z,1007.05
2023-07-11T07:21:00.615Z,1007.06
2023-07-11T07:22:00.596Z,1006.98
2023-07-11T07:23:00.600Z,1006.98
2023-07-11T07:24:00.572Z,1007.01
2023-07-11T07:25:06.408Z,1007.00
2023-07-11T07:26:01.561Z,1006.99
2023-07-11T07:27:00.530Z,1006.99
2023-07-11T07:28:00.513Z,1007.01
2023-07-11T07:29:00.519Z,1006.99
2023-07-11T07:30:00.503Z,1007.00
2023-07-11T07:31:00.667Z,1006.98
2023-07-11T07:32:00.481Z,1006.98
2023-07-11T07:33:00.490Z,1007.02
2023-07-11T07:34:00.462Z,1006.98
2023-07-11T07:35:00.466Z,1007.00
2023-07-11T07:36:00.428Z,1006.96
2023-07-11T07:37:00.420Z,1006.93
2023-07-11T07:38:00.422Z,1006.91
2023-07-11T07:39:00.426Z,1006.91
2023-07-11T07:40:00.399Z,1006.90
2023-07-11T07:41:00.390Z,1006.91
2023-07-11T07:42:00.373Z,1006.87
2023-07-11T07:43:00.403Z,1006.88
2023-07-11T07:44:00.372Z,1006.86
2023-07-11T07:45:00.357Z,1006.82
2023-07-11T07:46:00.334Z,1006.82
2023-07-11T07:47:00.387Z,1006.83
2023-07-11T07:48:00.350Z,1006.79
2023-07-11T07:49:00.324Z,1006.82
2023-07-11T07:50:01.298Z,1006.82
2023-07-11T07:51:00.278Z,1006.79
2023-07-11T07:52:00.279Z,1006.78
2023-07-11T07:53:00.258Z,1006.78
2023-07-11T07:54:00.247Z,1006.81
2023-07-11T07:55:00.268Z,1006.79
2023-07-11T07:56:00.280Z,1006.74
2023-07-11T07:57:00.234Z,1006.71
2023-07-11T07:58:00.202Z,1006.72
2023-07-11T07:59:00.183Z,1006.73
2023-07-11T08:00:00.188Z,1006.69
2023-07-11T08:01:00.190Z,1006.70
2023-07-11T08:02:00.192Z,1006.69
2023-07-11T08:03:00.212Z,1006.70
2023-07-11T08:04:00.286Z,1006.71
2023-07-11T08:05:00.221Z,1006.66
2023-07-11T08:06:13.565Z,1006.63
2023-07-11T08:07:01.125Z,1006.63
2023-07-11T08:08:00.138Z,1006.65
2023-07-11T08:09:00.143Z,1006.58
2023-07-11T08:10:00.130Z,1006.57
2023-07-11T08:11:00.098Z,1006.51
2023-07-11T08:12:00.065Z,1006.54
2023-07-11T08:13:00.040Z,1006.54
2023-07-11T08:14:00.914Z,1006.54
2023-07-11T08:15:00.060Z,1006.52
2023-07-11T08:16:00.049Z,1006.52
2023-07-11T08:17:00.040Z,1006.51
2023-07-11T08:18:00.031Z,1006.49
2023-07-11T08:19:00.031Z,1006.49
2023-07-11T08:19:59.972Z,1006.48
2023-07-11T08:20:59.956Z,1006.43
2023-07-11T08:21:59.948Z,1006.44
2023-07-11T08:22:59.928Z,1006.43
2023-07-11T08:23:59.930Z,1006.45
2023-07-11T08:24:59.916Z,1006.45
2023-07-11T08:25:59.898Z,1006.37
2023-07-11T08:26:59.929Z,1006.41
2023-07-11T08:27:59.872Z,1006.37
2023-07-11T08:28:59.902Z,1006.36
2023-07-11T08:29:59.872Z,1006.37
2023-07-11T08:30:59.917Z,1006.36
2023-07-11T08:31:59.860Z,1006.35
2023-07-11T08:32:59.910Z,1006.34
2023-07-11T08:33:59.828Z,1006.31
2023-07-11T08:34:59.819Z,1006.28
2023-07-11T08:35:59.789Z,1006.31
2023-07-11T08:36:59.773Z,1006.27
2023-07-11T08:37:59.794Z,1006.25
2023-07-11T08:38:59.771Z,1006.28
2023-07-11T08:39:59.761Z,1006.27
2023-07-11T08:40:59.719Z,1006.30
2023-07-11T08:41:59.754Z,1006.28
2023-07-11T08:42:59.734Z,1006.28
2023-07-11T08:43:59.704Z,1006.28
2023-07-11T08:45:00.398Z,1006.18
2023-07-11T08:46:11.272Z,1006.17
2023-07-11T08:47:00.725Z,1006.16
2023-07-11T08:47:59.724Z,1006.16
2023-07-11T08:48:59.662Z,1006.17
2023-07-11T08:49:59.649Z,1006.15
2023-07-11T08:50:59.617Z,1006.09
2023-07-11T08:51:59.599Z,1006.11
2023-07-11T08:52:59.616Z,1006.14
2023-07-11T08:53:59.597Z,1006.13
2023-07-11T08:54:59.580Z,1006.13
2023-07-11T08:55:59.559Z,1006.09
2023-07-11T08:57:00.522Z,1006.09
2023-07-11T08:57:59.547Z,1006.06
2023-07-11T08:58:59.572Z,1006.07
2023-07-11T08:59:59.549Z,1006.05
2023-07-11T09:00:59.505Z,1006.05
2023-07-11T09:01:59.718Z,1005.99
2023-07-11T09:03:02.030Z,1005.96
2023-07-11T09:03:59.502Z,1005.99
2023-07-11T09:04:59.451Z,1005.96
2023-07-11T09:05:59.446Z,1005.94
2023-07-11T09:06:59.446Z,1005.93
2023-07-11T09:07:59.461Z,1005.93
2023-07-11T09:08:59.439Z,1005.86
2023-07-11T09:09:59.404Z,1005.84
2023-07-11T09:10:59.395Z,1005.84
2023-07-11T09:11:59.407Z,1005.82
2023-07-11T09:13:06.669Z,1005.78
2023-07-11T09:14:00.482Z,1005.77
2023-07-11T09:14:59.390Z,1005.77
2023-07-11T09:15:59.354Z,1005.80
2023-07-11T09:16:59.431Z,1005.76
2023-07-11T09:17:59.341Z,1005.79
2023-07-11T09:18:59.318Z,1005.74
2023-07-11T09:19:59.304Z,1005.71
2023-07-11T09:20:59.306Z,1005.67
2023-07-11T09:21:59.282Z,1005.69
2023-07-11T09:22:59.283Z,1005.64
2023-07-11T09:24:09.167Z,1005.61
2023-07-11T09:25:00.783Z,1005.58
2023-07-11T09:25:59.260Z,1005.58
2023-07-11T09:26:59.266Z,1005.54
2023-07-11T09:27:59.221Z,1005.56
2023-07-11T09:28:59.214Z,1005.55
2023-07-11T09:29:59.193Z,1005.50
2023-07-11T09:31:01.356Z,1005.48
2023-07-11T09:31:59.343Z,1005.48
2023-07-11T09:32:59.286Z,1005.52
2023-07-11T09:33:59.148Z,1005.46
2023-07-11T09:34:59.172Z,1005.45
2023-07-11T09:35:59.148Z,1005.45
2023-07-11T09:37:00.936Z,1005.42
2023-07-11T09:37:59.112Z,1005.33
2023-07-11T09:38:59.133Z,1005.40
2023-07-11T09:39:59.107Z,1005.40
2023-07-11T09:40:59.113Z,1005.40
2023-07-11T09:41:59.061Z,1005.37
2023-07-11T09:43:00.740Z,1005.38
2023-07-11T09:43:59.032Z,1005.39
2023-07-11T09:44:59.042Z,1005.40
2023-07-11T09:45:59.059Z,1005.42
2023-07-11T09:46:59.048Z,1005.37
2023-07-11T09:47:59.028Z,1005.35
2023-07-11T09:48:59.026Z,1005.30
2023-07-11T09:49:58.986Z,1005.32
2023-07-11T09:51:58.960Z,1005.32
2023-07-11T09:52:58.948Z,1005.27
2023-07-11T09:53:58.948Z,1005.27
2023-07-11T09:55:08.829Z,1005.26
2023-07-11T09:56:11.200Z,1005.26
2023-07-11T09:56:59.893Z,1005.25
2023-07-11T09:57:58.895Z,1005.19
2023-07-11T09:58:58.908Z,1005.09
2023-07-11T10:00:05.493Z,1005.17
2023-07-11T10:00:59.896Z,1005.21
2023-07-11T10:01:58.851Z,1005.16
2023-07-11T10:02:58.882Z,1005.12
2023-07-11T10:03:58.912Z,1005.13
2023-07-11T10:04:59.087Z,1005.08
2023-07-11T10:05:58.823Z,1005.07
2023-07-11T10:06:58.823Z,1005.03
2023-07-11T10:07:58.805Z,1005.05
2023-07-11T10:08:58.788Z,1005.02
2023-07-11T10:09:58.760Z,1005.00
2023-07-11T10:10:58.774Z,1005.02
2023-07-11T10:11:58.780Z,1004.99
2023-07-11T10:12:58.774Z,1004.97
2023-07-11T10:13:58.763Z,1004.96
2023-07-11T10:14:58.721Z,1004.89
2023-07-11T10:15:58.811Z,1004.93
2023-07-11T10:16:58.807Z,1004.89
2023-07-11T10:17:58.696Z,1004.92
2023-07-11T10:18:58.741Z,1004.91
2023-07-11T10:20:08.123Z,1004.90
2023-07-11T10:20:59.660Z,1004.91
2023-07-11T10:21:58.667Z,1004.91
2023-07-11T10:22:58.669Z,1004.88
2023-07-11T10:23:58.649Z,1004.84
2023-07-11T10:24:58.610Z,1004.85
2023-07-11T10:25:58.626Z,1004.84
2023-07-11T10:26:58.628Z,1004.85
2023-07-11T10:27:58.562Z,1004.82
2023-07-11T10:28:58.794Z,1004.83
2023-07-11T10:29:58.544Z,1004.84
2023-07-11T10:30:58.581Z,1004.89
2023-07-11T10:31:58.565Z,1004.85
2023-07-11T10:33:08.384Z,1004.81
2023-07-11T10:34:01.263Z,1004.84
2023-07-11T10:34:58.558Z,1004.75
2023-07-11T10:35:58.483Z,1004.77
2023-07-11T10:36:58.477Z,1004.71
2023-07-11T10:37:58.492Z,1004.71
2023-07-11T10:38:58.453Z,1004.72
2023-07-11T10:39:58.479Z,1004.72
2023-07-11T10:40:58.448Z,1004.73
2023-07-11T10:41:58.420Z,1004.70
2023-07-11T10:42:58.402Z,1004.69
2023-07-11T10:43:58.405Z,1004.72
2023-07-11T10:44:58.540Z,1004.73
2023-07-11T10:45:58.402Z,1004.68
2023-07-11T10:46:58.401Z,1004.69
2023-07-11T10:47:58.426Z,1004.63
2023-07-11T10:48:58.348Z,1004.58
2023-07-11T10:49:58.376Z,1004.61
2023-07-11T10:50:58.373Z,1004.55
2023-07-11T10:51:58.346Z,1004.50
2023-07-11T10:52:58.320Z,1004.53
2023-07-11T10:53:58.291Z,1004.49
2023-07-11T10:54:58.295Z,1004.44
2023-07-11T10:55:58.270Z,1004.47
2023-07-11T10:56:58.270Z,1004.38
2023-07-11T10:57:58.279Z,1004.40
2023-07-11T10:58:58.237Z,1004.50
2023-07-11T10:59:58.245Z,1004.43
2023-07-11T11:00:58.285Z,1004.41
2023-07-11T11:01:58.247Z,1004.40
2023-07-11T11:02:58.294Z,1004.50
2023-07-11T11:03:58.291Z,1004.40
2023-07-11T11:04:58.248Z,1004.38
2023-07-11T11:05:58.230Z,1004.35
2023-07-11T11:06:58.219Z,1004.29
2023-07-11T11:07:58.154Z,1004.33
2023-07-11T11:08:58.146Z,1004.33
2023-07-11T11:09:58.129Z,1004.29
2023-07-11T11:10:58.107Z,1004.21
2023-07-11T11:11:58.110Z,1004.22
2023-07-11T11:12:58.104Z,1004.27
2023-07-11T11:13:58.195Z,1004.22
2023-07-11T11:14:58.117Z,1004.27
2023-07-11T11:15:58.065Z,1004.29
2023-07-11T11:16:58.051Z,1004.22
2023-07-11T11:17:58.087Z,1004.20
2023-07-11T11:18:58.075Z,1004.25
2023-07-11T11:19:58.029Z,1004.14
2023-07-11T11:21:06.623Z,1004.19
2023-07-11T11:21:59.021Z,1004.14
2023-07-11T11:22:58.036Z,1004.06
2023-07-11T11:23:57.986Z,1004.04
2023-07-11T11:24:57.964Z,1004.06
2023-07-11T11:25:57.962Z,1004.00
2023-07-11T11:26:57.946Z,1004.04
2023-07-11T11:27:57.975Z,1004.01
2023-07-11T11:28:57.942Z,1003.99
2023-07-11T11:29:57.918Z,1003.95
2023-07-11T11:30:57.993Z,1003.92
2023-07-11T11:31:57.897Z,1003.95
2023-07-11T11:32:57.932Z,1003.92
2023-07-11T11:33:57.899Z,1003.97
2023-07-11T11:35:13.650Z,1003.88
2023-07-11T11:35:58.840Z,1003.87
2023-07-11T11:36:57.855Z,1003.85
2023-07-11T11:37:57.856Z,1003.88
2023-07-11T11:38:57.837Z,1003.90
2023-07-11T11:39:57.826Z,1003.84
2023-07-11T11:40:59.827Z,1003.80
2023-07-11T11:41:57.799Z,1003.78
2023-07-11T11:46:27.611Z,1003.78
2023-07-11T11:47:00.605Z,1003.68
2023-07-11T11:51:11.772Z,1003.68
2023-07-11T11:51:58.724Z,1003.67
2023-07-11T11:52:59.742Z,1003.61
2023-07-11T11:53:57.658Z,1003.58
2023-07-11T11:54:57.693Z,1003.56
2023-07-11T11:56:10.169Z,1003.52
2023-07-11T11:56:58.654Z,1003.61
2023-07-11T11:57:57.620Z,1003.56
2023-07-11T11:58:57.604Z,1003.49
2023-07-11T11:59:57.599Z,1003.61
2023-07-11T12:00:57.594Z,1003.59
2023-07-11T12:01:57.566Z,1003.66
2023-07-11T12:02:57.623Z,1003.57
2023-07-11T12:03:57.635Z,1003.64
2023-07-11T12:04:57.652Z,1003.53
2023-07-11T12:05:57.553Z,1003.35
2023-07-11T12:06:57.527Z,1003.53
2023-07-11T12:07:57.530Z,1003.57
2023-07-11T12:08:57.504Z,1003.52
2023-07-11T12:09:57.521Z,1003.53
2023-07-11T12:10:57.504Z,1003.62
2023-07-11T12:11:57.506Z,1003.50